Latest Weather Observations for Port Hedland

IDW60801

Issued at 12:35 pm WST Sunday 26 October 2014 (issued every 30 minutes, with the page automatically refreshed every 10 minutes)

About weather observations | Map of weather stations | Latest weather observations for WA | Other Formats
Station Details ID: 004032 Name: PORT HEDLAND AIRPORT Lat: -20.37 Lon: 118.63 Height: 6.4 m
Data from the previous 72 hours. | See also: Recent months at Port Hedland
Date/Time
WST
Temp
°C
App
Temp
°C
Dew
Point
Rel
Hum
%
Delta-T
°C
Wind Press
QNH
hPa
Press
MSL
hPa
Rain
since 9 am
mm
Dir
 
Spd
km/h
Gust
km/h
Spd
kts
Gust
kts
26/12:30pm 42.1 36.5 -3.2 6 22.3 SE 17 28 9 15 1010.3 - 0.0
26/12:00pm 41.6 36.8 -2.2 6 21.8 ESE 13 19 7 10 1010.8 1010.8 0.0
26/11:30am 41.3 35.1 -3.3 6 21.8 S 20 26 11 14 1011.2 - 0.0
26/11:00am 41.5 35.9 -2.6 6 21.8 SE 17 33 9 18 1011.6 - 0.0
26/10:30am 40.5 34.5 -1.6 7 21.0 SSE 20 33 11 18 1012.1 - 0.0
26/10:00am 39.5 33.0 -2.3 7 20.5 SSE 22 35 12 19 1012.5 - 0.0
26/09:30am 38.7 31.5 -1.7 8 19.9 SSE 26 37 14 20 1012.7 - 0.0
26/09:00am 38.0 32.8 2.4 11 18.6 SE 19 28 10 15 1012.9 1012.9 0.0
26/08:30am 36.2 31.3 3.9 13 17.1 SSE 19 24 10 13 1013.0 - -
26/08:00am 34.3 30.0 5.4 16 15.5 SSE 17 24 9 13 1012.9 - -
26/07:30am 31.6 29.7 10.5 27 12.1 SSE 11 15 6 8 1012.7 - -
26/07:00am 28.9 26.6 10.6 32 10.4 SSE 13 17 7 9 1012.6 - -
26/06:30am 25.8 24.9 14.8 50 6.6 S 13 17 7 9 1012.2 - -
26/06:00am 24.0 23.9 16.1 61 4.8 S 11 15 6 8 1011.8 1011.8 -
26/05:30am 23.5 22.7 17.0 67 4.0 SSW 17 19 9 10 1011.5 - -
26/05:00am 23.1 22.7 18.0 73 3.2 SSW 17 20 9 11 1011.2 - -
26/04:30am 22.3 22.6 18.8 80 2.2 S 15 19 8 10 1011.0 - -
26/04:00am 22.7 23.2 19.2 80 2.2 S 15 17 8 9 1010.7 - -
26/03:30am 22.5 23.5 19.5 83 1.9 SSW 13 17 7 9 1010.3 - -
26/03:00am 23.4 25.1 20.2 82 2.1 S 11 15 6 8 1010.4 1010.4 -
26/02:30am 22.6 24.0 20.3 87 1.5 SW 13 15 7 8 1010.3 - -
26/02:00am 22.7 24.8 20.2 86 1.6 SSW 9 11 5 6 1010.4 - -
26/01:30am 24.0 26.9 20.6 81 2.2 SE 6 7 3 4 1010.7 - -
26/01:00am 24.6 27.4 20.9 80 2.4 SSE 7 11 4 6 1010.8 - -
26/12:30am 24.5 25.6 20.5 78 2.6 ESE 15 20 8 11 1011.3 - -
26/12:00am 25.5 26.5 20.3 73 3.4 SE 15 24 8 13 1011.1 1011.1 -
 
Date/Time
WST
Temp
°C
App
Temp
°C
Dew
Point
Rel
Hum
%
Delta-T
°C
Wind Press
QNH
hPa
Press
MSL
hPa
Rain
since 9 am
mm
Dir
 
Spd
km/h
Gust
km/h
Spd
kts
Gust
kts
25/11:30pm 26.0 28.0 20.0 69 3.9 S 9 20 5 11 1011.6 - -
25/11:00pm 26.0 28.7 20.3 71 3.7 SSW 6 9 3 5 1011.2 - -
25/10:30pm 24.3 27.2 21.1 82 2.1 NW 7 9 4 5 1011.3 - -
25/10:00pm 25.1 28.5 21.6 81 2.3 NW 6 7 3 4 1011.5 - -
25/09:30pm 25.5 28.8 21.9 80 2.4 NW 7 11 4 6 1011.4 - -
25/09:00pm 25.8 28.3 21.7 78 2.7 NW 11 13 6 7 1011.1 1011.1 -
25/08:30pm 26.5 28.7 21.9 76 3.1 NW 13 15 7 8 1011.2 - -
25/08:00pm 26.9 28.7 21.8 73 3.4 NW 15 19 8 10 1011.1 - -
25/07:30pm 27.0 28.8 21.8 73 3.5 NW 15 20 8 11 1011.3 - -
25/07:00pm 27.3 28.4 21.3 69 4.0 NNW 17 20 9 11 1011.0 - -
25/06:30pm 27.8 28.5 21.2 67 4.4 NW 19 26 10 14 1010.9 - -
25/06:00pm 28.6 28.6 20.9 63 5.1 NW 22 30 12 16 1010.7 1010.7 -
25/05:30pm 30.2 29.0 19.3 52 7.1 NW 24 32 13 17 1010.5 - -
25/05:00pm 31.2 28.9 18.5 46 8.2 NW 28 35 15 19 1010.2 - -
25/04:30pm 32.2 29.0 17.3 41 9.5 NW 30 39 16 21 1009.9 - -
25/04:00pm 32.6 29.5 18.8 44 9.0 NW 33 41 18 22 1010.0 - -
25/03:30pm 34.1 30.4 16.9 36 11.0 NW 32 39 17 21 1009.9 - -
25/03:00pm 35.2 30.5 14.3 28 12.9 NW 32 37 17 20 1009.9 1009.9 -
25/02:30pm 35.7 30.9 13.9 27 13.4 NW 32 37 17 20 1010.1 - -
25/02:00pm 34.9 31.5 15.7 31 12.1 NW 28 35 15 19 1010.5 - -
25/01:30pm - - - - - - - - - - - - -
25/01:00pm - - - - - - - - - - - - -
25/12:30pm - - - - - - - - - - - - -
25/12:00pm - - - - - - - - - - - - -
25/11:30am - - - - - - - - - - - - -
25/11:15am 35.6 37.0 21.1 43 9.8 NNE 15 24 8 13 1012.5 - 0.0
25/11:00am 40.7 34.5 -0.4 8 20.9 SSE 22 33 12 18 1012.4 - 0.0
25/10:30am 40.0 33.9 2.7 10 19.8 SSE 24 35 13 19 1012.8 - 0.0
25/10:00am 38.8 33.2 5.5 13 18.3 SE 24 33 13 18 1013.0 - 0.0
25/09:30am 37.8 33.9 8.7 17 16.7 SSE 19 28 10 15 1013.0 - 0.0
25/09:00am 35.7 33.5 13.4 26 13.6 SSE 17 26 9 14 1013.3 1013.3 0.0
25/08:30am 33.8 32.6 16.2 35 11.1 SSE 17 24 9 13 1013.5 - 0.0
25/08:00am 31.0 31.2 18.6 47 8.0 SSE 15 22 8 12 1013.0 - 0.0
25/07:30am 28.2 29.6 21.1 65 4.7 SE 15 20 8 11 1013.0 - 0.0
25/07:00am 25.9 28.3 21.5 76 2.9 SE 11 15 6 8 1013.0 - 0.0
25/06:30am 23.8 26.3 21.1 85 1.8 SE 9 13 5 7 1012.8 - 0.0
25/06:00am 22.1 24.5 20.9 93 0.8 S 9 13 5 7 1012.4 1012.4 0.0
25/05:30am 21.8 23.4 20.7 93 0.7 SSW 13 15 7 8 1011.9 - 0.0
25/05:00am 21.6 23.2 20.8 95 0.5 WSW 13 13 7 7 1011.7 - 0.0
25/04:30am 22.2 25.9 20.8 92 0.9 W 2 9 1 5 1011.2 - 0.0
25/04:00am 22.3 26.4 20.8 91 1.0 CALM 0 6 0 3 1011.1 - 0.0
25/03:30am 22.8 25.3 21.0 89 1.2 W 9 11 5 6 1010.8 - 0.0
25/03:00am 23.4 27.8 21.3 88 1.4 CALM 0 6 0 3 1010.6 1010.6 0.0
25/02:30am 23.2 25.0 21.1 88 1.4 W 13 13 7 7 1010.4 - 0.0
25/02:00am 24.0 25.9 21.4 85 1.7 WNW 13 13 7 7 1010.6 - 0.0
25/01:30am 24.8 26.5 21.6 82 2.1 WNW 15 17 8 9 1010.8 - 0.0
25/01:00am 25.1 26.9 21.8 82 2.2 NW 15 19 8 10 1011.0 - 0.0
25/12:30am 25.5 26.3 21.4 78 2.7 NW 19 26 10 14 1011.3 - 0.0
25/12:00am 25.5 26.8 21.6 79 2.6 NNW 17 22 9 12 1011.5 1011.5 0.0
 
Date/Time
WST
Temp
°C
App
Temp
°C
Dew
Point
Rel
Hum
%
Delta-T
°C
Wind Press
QNH
hPa
Press
MSL
hPa
Rain
since 9 am
mm
Dir
 
Spd
km/h
Gust
km/h
Spd
kts
Gust
kts
24/11:30pm 25.6 26.9 22.3 82 2.2 NNW 19 24 10 13 1011.7 - 0.0
24/11:00pm 25.3 27.3 22.3 83 2.0 NNW 15 17 8 9 1012.0 - 0.0
24/10:30pm 25.3 28.0 22.9 86 1.6 NNW 13 15 7 8 1012.2 - 0.0
24/10:00pm 25.5 28.5 23.3 88 1.5 N 13 17 7 9 1012.1 - 0.0
24/09:30pm 25.5 28.2 23.4 88 1.4 NNW 15 19 8 10 1011.9 - 0.0
24/09:00pm 25.4 29.7 24.2 93 0.8 NNW 9 15 5 8 1011.8 1011.8 0.0
24/08:30pm 25.8 29.3 24.2 91 1.1 N 13 17 7 9 1011.6 - 0.0
24/08:00pm 25.9 29.2 23.9 89 1.4 N 13 15 7 8 1011.3 - 0.0
24/07:30pm 26.3 29.1 23.7 85 1.8 N 15 19 8 10 1011.1 - 0.0
24/07:00pm 26.4 28.7 23.5 84 2.0 N 17 20 9 11 1010.9 - 0.0
24/06:30pm 26.8 28.5 23.4 81 2.3 N 20 24 11 13 1010.6 - 0.0
24/06:00pm 27.3 28.2 22.7 76 3.1 N 22 28 12 15 1010.0 1010.0 0.0
24/05:30pm 28.2 28.9 22.3 70 4.0 N 22 26 12 14 1009.8 - 0.0
24/05:00pm 29.0 29.1 21.9 65 4.8 N 24 35 13 19 1009.5 - 0.0
24/04:30pm 29.5 30.1 22.8 67 4.6 N 24 32 13 17 1009.0 - 0.0
24/04:00pm 29.5 29.1 23.1 68 4.4 NNE 30 39 16 21 1008.8 - 0.0
24/03:30pm 30.0 29.9 23.6 68 4.4 N 30 39 16 21 1008.9 - 0.0
24/03:00pm 30.4 30.1 23.9 68 4.5 N 32 39 17 21 1008.9 1008.9 0.0
24/02:30pm 31.0 31.2 24.1 66 4.8 N 30 35 16 19 1008.8 - 0.0
24/02:00pm 31.9 32.0 24.0 63 5.5 N 30 37 16 20 1009.0 - 0.0
24/01:30pm 32.3 33.1 23.8 61 5.9 NNE 26 32 14 17 1009.4 - 0.0
24/01:00pm 32.7 34.5 23.5 58 6.4 N 20 28 11 15 1009.5 - 0.0
24/12:30pm 33.7 35.0 22.7 52 7.6 N 20 26 11 14 1009.8 - 0.0
24/12:00pm 35.0 35.9 22.0 46 8.9 NNE 20 24 11 13 1010.0 1010.0 0.0
24/11:30am 33.7 34.7 21.8 49 8.1 NNE 19 24 10 13 1010.3 - 0.0
24/11:00am 33.9 36.1 21.9 49 8.2 N 13 22 7 12 1010.6 - 0.0
24/10:30am 32.5 34.9 22.2 54 7.0 N 13 19 7 10 1011.0 - 0.0
24/10:00am 32.6 34.2 22.2 54 7.1 NNE 17 20 9 11 1011.3 - 0.0
24/09:30am 34.0 34.7 18.9 41 9.9 ESE 13 19 7 10 1011.5 - 0.0
24/09:00am 32.5 33.5 19.4 46 8.6 ESE 13 20 7 11 1011.6 1011.6 0.0
24/08:30am 31.3 32.3 20.3 52 7.3 ESE 15 19 8 10 1011.7 - 0.0
24/08:00am 29.5 30.9 21.8 63 5.2 ESE 17 22 9 12 1011.5 - 0.0
24/07:30am 27.8 29.8 22.2 71 3.8 ESE 15 20 8 11 1011.4 - 0.0
24/07:00am 25.7 27.1 21.8 79 2.6 E 17 22 9 12 1011.4 - 0.0
24/06:30am 23.7 24.9 19.8 79 2.5 E 13 17 7 9 1011.2 - 0.0
24/06:00am 22.7 23.8 18.9 79 2.4 SSE 11 13 6 7 1010.4 1010.4 0.0
24/05:30am 21.9 22.9 18.6 81 2.1 S 11 17 6 9 1010.1 - 0.0
24/05:00am 22.0 23.4 18.7 81 2.1 S 9 11 5 6 1009.7 - 0.0
24/04:30am 22.2 23.8 19.2 83 1.9 S 9 13 5 7 1009.5 - 0.0
24/04:00am 21.9 23.2 19.2 85 1.7 SW 11 11 6 6 1009.1 - 0.0
24/03:30am 22.2 24.0 19.5 85 1.7 WSW 9 11 5 6 1009.0 - 0.0
24/03:00am 22.3 24.6 19.5 84 1.8 ESE 6 7 3 4 1009.0 1009.0 0.0
24/02:30am 23.1 26.4 20.0 83 2.0 ESE 2 7 1 4 1009.0 - 0.0
24/02:00am 23.6 27.3 20.0 80 2.3 CALM 0 0 0 0 1009.2 - 0.0
24/01:30am 23.8 26.1 19.9 79 2.5 N 7 15 4 8 1009.7 - 0.0
24/01:00am 24.8 26.6 20.4 76 2.9 NNE 11 19 6 10 1009.5 - 0.0
24/12:30am 26.2 27.6 20.4 70 3.8 WSW 13 19 7 10 - - 0.0
24/12:00am 25.6 26.5 20.9 75 3.1 W 17 20 9 11 1009.7 1009.7 0.0
 
Date/Time
WST
Temp
°C
App
Temp
°C
Dew
Point
Rel
Hum
%
Delta-T
°C
Wind Press
QNH
hPa
Press
MSL
hPa
Rain
since 9 am
mm
Dir
 
Spd
km/h
Gust
km/h
Spd
kts
Gust
kts
23/11:30pm 25.7 26.7 21.0 75 3.1 W 17 20 9 11 1009.9 - 0.0
23/11:00pm 26.1 26.6 20.9 73 3.4 W 19 22 10 12 1010.1 - 0.0
23/10:30pm 26.6 26.5 20.8 70 3.8 W 22 28 12 15 1010.2 - 0.0
23/10:00pm 27.0 26.7 20.3 66 4.4 W 22 28 12 15 1010.4 - 0.0
23/09:30pm 27.0 27.2 19.3 62 5.0 W 17 20 9 11 1010.6 - 0.0
23/09:00pm 27.0 27.1 19.1 62 5.1 W 17 20 9 11 1010.4 1010.4 0.0
23/08:30pm 27.2 27.3 19.1 61 5.2 W 17 20 9 11 1010.1 - 0.0
23/08:00pm 27.8 27.4 19.0 58 5.7 W 19 24 10 13 1010.0 - 0.0
23/07:30pm 28.3 27.9 18.8 56 6.1 W 19 26 10 14 1009.7 - 0.0
23/07:00pm 28.9 27.4 18.5 53 6.7 W 24 30 13 16 1009.3 - 0.0
23/06:30pm 29.6 27.3 17.7 48 7.6 W 26 33 14 18 1009.0 - 0.0
23/06:00pm 30.6 27.5 16.6 43 8.8 W 28 37 15 20 1008.6 1008.6 0.0
23/05:30pm 31.7 27.7 16.2 39 9.7 W 32 41 17 22 1008.4 - 0.0
23/05:00pm 33.6 29.1 13.7 30 12.1 WNW 30 37 16 20 1008.2 - 0.0
23/04:30pm 34.5 29.8 14.9 31 12.2 WNW 33 41 18 22 1008.1 - 0.0
23/04:00pm 35.6 30.6 13.3 26 13.6 WNW 32 39 17 21 1008.2 - 0.0
23/03:30pm 36.7 29.9 10.8 21 15.3 WNW 37 43 20 23 1008.2 - 0.0
23/03:00pm 37.8 31.2 8.5 17 16.8 WNW 33 44 18 24 1008.3 1008.3 0.0
23/02:30pm 38.2 30.8 6.7 14 17.6 WNW 35 43 19 23 1008.5 - 0.0
23/02:00pm 37.8 31.0 9.4 18 16.5 NW 35 41 19 22 1008.6 - 0.0
23/01:30pm 37.9 31.5 9.3 17 16.6 NW 33 41 18 22 1008.9 - 0.0
23/01:00pm 38.8 33.9 11.3 19 16.5 NW 28 35 15 19 1009.2 - 0.0

Other Formats:

Comma delimited format used in spreadsheet applications
http://www.bom.gov.au/fwo/IDW60801/IDW60801.94312.axf

JavaScript Object Notation format (JSON) in row-major order
http://www.bom.gov.au/fwo/IDW60801/IDW60801.94312.json